sensor_id;sensor_type;location;lat;lon;timestamp;pressure;altitude;pressure_sealevel;temperature;humidity
62976;BME280;49071;0.000;0.000;2023-09-19T05:08:09;100202.72;;;22.86;
62976;BME280;49071;0.000;0.000;2023-09-19T05:11:09;100208.81;;;22.86;
62976;BME280;49071;0.000;0.000;2023-09-19T05:14:09;100209.16;;;22.91;
62976;BME280;49071;0.000;0.000;2023-09-19T05:17:10;100205.22;;;22.95;
62976;BME280;49071;0.000;0.000;2023-09-19T05:20:10;100199.94;;;22.95;
62976;BME280;49071;0.000;0.000;2023-09-19T05:23:18;100210.50;;;22.95;
62976;BME280;49071;0.000;0.000;2023-09-19T05:26:21;100205.88;;;22.97;
62976;BME280;49071;0.000;0.000;2023-09-19T05:29:21;100203.25;;;22.97;
62976;BME280;49071;0.000;0.000;2023-09-19T05:32:21;100205.72;;;22.99;
62976;BME280;49071;0.000;0.000;2023-09-19T05:35:22;100208.34;;;22.99;
62976;BME280;49071;0.000;0.000;2023-09-19T05:38:23;100213.63;;;22.91;
62976;BME280;49071;0.000;0.000;2023-09-19T05:41:24;100214.44;;;22.91;
62976;BME280;49071;0.000;0.000;2023-09-19T05:44:24;100220.22;;;22.95;
62976;BME280;49071;0.000;0.000;2023-09-19T05:47:25;100222.03;;;22.94;
62976;BME280;49071;0.000;0.000;2023-09-19T05:50:25;100226.00;;;22.98;
62976;BME280;49071;0.000;0.000;2023-09-19T05:53:25;100220.88;;;22.97;
62976;BME280;49071;0.000;0.000;2023-09-19T05:56:25;100235.88;;;22.96;
62976;BME280;49071;0.000;0.000;2023-09-19T05:59:25;100230.28;;;22.91;
62976;BME280;49071;0.000;0.000;2023-09-19T06:02:26;100230.28;;;22.91;
62976;BME280;49071;0.000;0.000;2023-09-19T06:05:30;100241.31;;;22.95;
62976;BME280;49071;0.000;0.000;2023-09-19T06:08:32;100247.94;;;22.99;
62976;BME280;49071;0.000;0.000;2023-09-19T06:11:34;100254.03;;;22.99;
62976;BME280;49071;0.000;0.000;2023-09-19T06:14:34;100271.53;;;23.00;
62976;BME280;49071;0.000;0.000;2023-09-19T06:17:35;100278.44;;;23.01;
62976;BME280;49071;0.000;0.000;2023-09-19T06:20:37;100273.16;;;23.01;
62976;BME280;49071;0.000;0.000;2023-09-19T06:23:44;100288.00;;;23.02;
62976;BME280;49071;0.000;0.000;2023-09-19T06:26:44;100289.69;;;23.03;
62976;BME280;49071;0.000;0.000;2023-09-19T06:29:44;100297.59;;;23.03;
62976;BME280;49071;0.000;0.000;2023-09-19T06:32:45;100300.88;;;23.05;
62976;BME280;49071;0.000;0.000;2023-09-19T06:35:45;100300.88;;;23.05;
62976;BME280;49071;0.000;0.000;2023-09-19T06:38:47;100303.53;;;23.05;
62976;BME280;49071;0.000;0.000;2023-09-19T06:41:47;100314.88;;;23.06;
62976;BME280;49071;0.000;0.000;2023-09-19T06:44:48;100318.38;;;23.06;
62976;BME280;49071;0.000;0.000;2023-09-19T06:47:49;100330.59;;;23.07;
62976;BME280;49071;0.000;0.000;2023-09-19T06:50:50;100329.75;;;23.07;
62976;BME280;49071;0.000;0.000;2023-09-19T06:53:50;100335.84;;;23.07;
62976;BME280;49071;0.000;0.000;2023-09-19T06:56:53;100327.78;;;23.09;
62976;BME280;49071;0.000;0.000;2023-09-19T06:59:55;100344.28;;;23.11;
62976;BME280;49071;0.000;0.000;2023-09-19T07:02:58;100346.91;;;23.11;
62976;BME280;49071;0.000;0.000;2023-09-19T07:06:00;100346.91;;;23.11;
62976;BME280;49071;0.000;0.000;2023-09-19T07:09:00;100356.66;;;23.10;
62976;BME280;49071;0.000;0.000;2023-09-19T07:12:01;100350.56;;;23.10;
62976;BME280;49071;0.000;0.000;2023-09-19T07:15:01;100348.56;;;23.11;
62976;BME280;49071;0.000;0.000;2023-09-19T07:18:01;100359.94;;;23.12;
62976;BME280;49071;0.000;0.000;2023-09-19T07:21:01;100358.97;;;23.13;
62976;BME280;49071;0.000;0.000;2023-09-19T07:24:04;100366.91;;;23.13;
62976;BME280;49071;0.000;0.000;2023-09-19T07:27:05;100360.78;;;23.12;
62976;BME280;49071;0.000;0.000;2023-09-19T07:30:06;100367.72;;;23.13;
62976;BME280;49071;0.000;0.000;2023-09-19T07:33:06;100359.63;;;23.15;
62976;BME280;49071;0.000;0.000;2023-09-19T07:36:09;100365.44;;;23.18;
62976;BME280;49071;0.000;0.000;2023-09-19T07:39:10;100373.19;;;23.20;
62976;BME280;49071;0.000;0.000;2023-09-19T07:42:10;100362.94;;;23.17;
62976;BME280;49071;0.000;0.000;2023-09-19T07:45:13;100370.84;;;23.17;
62976;BME280;49071;0.000;0.000;2023-09-19T07:48:16;100382.41;;;23.16;
62976;BME280;49071;0.000;0.000;2023-09-19T07:51:17;100389.34;;;23.17;
62976;BME280;49071;0.000;0.000;2023-09-19T07:54:17;100395.59;;;23.16;
62976;BME280;49071;0.000;0.000;2023-09-19T07:57:17;100405.16;;;23.17;
62976;BME280;49071;0.000;0.000;2023-09-19T08:00:17;100400.72;;;23.17;
62976;BME280;49071;0.000;0.000;2023-09-19T08:03:17;100408.63;;;23.17;
62976;BME280;49071;0.000;0.000;2023-09-19T08:06:18;100420.00;;;23.18;
62976;BME280;49071;0.000;0.000;2023-09-19T08:09:20;100425.28;;;23.18;
62976;BME280;49071;0.000;0.000;2023-09-19T08:12:20;100427.09;;;23.17;
62976;BME280;49071;0.000;0.000;2023-09-19T08:15:24;100442.94;;;23.17;
62976;BME280;49071;0.000;0.000;2023-09-19T08:18:24;100449.91;;;23.18;
62976;BME280;49071;0.000;0.000;2023-09-19T08:21:26;100462.91;;;23.20;
62976;BME280;49071;0.000;0.000;2023-09-19T08:24:29;100456.00;;;23.19;
62976;BME280;49071;0.000;0.000;2023-09-19T08:27:30;100455.81;;;23.20;
62976;BME280;49071;0.000;0.000;2023-09-19T08:30:30;100461.94;;;23.21;
62976;BME280;49071;0.000;0.000;2023-09-19T08:33:31;100462.59;;;23.23;
62976;BME280;49071;0.000;0.000;2023-09-19T08:36:32;100452.88;;;23.23;
62976;BME280;49071;0.000;0.000;2023-09-19T08:39:32;100453.03;;;23.22;
62976;BME280;49071;0.000;0.000;2023-09-19T08:42:46;100451.38;;;23.21;
62976;BME280;49071;0.000;0.000;2023-09-19T08:45:47;100455.81;;;23.20;
62976;BME280;49071;0.000;0.000;2023-09-19T08:51:55;100449.34;;;23.15;
62976;BME280;49071;0.000;0.000;2023-09-19T08:55:00;100455.63;;;23.14;
62976;BME280;49071;0.000;0.000;2023-09-19T08:58:04;100445.56;;;23.10;
62976;BME280;49071;0.000;0.000;2023-09-19T09:01:06;100425.25;;;23.10;
62976;BME280;49071;0.000;0.000;2023-09-19T09:04:10;100408.59;;;23.10;
62976;BME280;49071;0.000;0.000;2023-09-19T09:07:13;100406.09;;;23.08;
62976;BME280;49071;0.000;0.000;2023-09-19T09:10:13;100403.47;;;23.08;
62976;BME280;49071;0.000;0.000;2023-09-19T09:13:13;100414.19;;;23.07;
62976;BME280;49071;0.000;0.000;2023-09-19T09:16:15;100426.56;;;23.06;
62976;BME280;49071;0.000;0.000;2023-09-19T09:19:18;100435.31;;;23.07;
62976;BME280;49071;0.000;0.000;2023-09-19T09:22:24;100428.22;;;23.07;
62976;BME280;49071;0.000;0.000;2023-09-19T09:25:24;100424.56;;;23.08;
62976;BME280;49071;0.000;0.000;2023-09-19T09:28:45;100428.56;;;23.12;
62976;BME280;49071;0.000;0.000;2023-09-19T09:31:45;100441.59;;;23.13;
62976;BME280;49071;0.000;0.000;2023-09-19T09:34:47;100444.06;;;23.15;
62976;BME280;49071;0.000;0.000;2023-09-19T09:37:48;100443.25;;;23.14;
62976;BME280;49071;0.000;0.000;2023-09-19T09:41:00;100454.63;;;23.15;
62976;BME280;49071;0.000;0.000;2023-09-19T09:44:04;100453.28;;;23.11;
62976;BME280;49071;0.000;0.000;2023-09-19T09:47:13;100454.44;;;23.09;
62976;BME280;49071;0.000;0.000;2023-09-19T09:50:29;100442.22;;;23.08;
62976;BME280;49071;0.000;0.000;2023-09-19T09:53:39;100450.13;;;23.08;
62976;BME280;49071;0.000;0.000;2023-09-19T09:56:55;100455.28;;;23.09;
62976;BME280;49071;0.000;0.000;2023-09-19T09:59:59;100464.16;;;23.08;
62976;BME280;49071;0.000;0.000;2023-09-19T10:03:19;100465.84;;;23.09;
62976;BME280;49071;0.000;0.000;2023-09-19T10:06:21;100460.22;;;23.12;
62976;BME280;49071;0.000;0.000;2023-09-19T10:09:27;100467.16;;;23.13;
62976;BME280;49071;0.000;0.000;2023-09-19T10:12:31;100470.47;;;23.15;
62976;BME280;49071;0.000;0.000;2023-09-19T10:15:32;100466.03;;;23.15;
62976;BME280;49071;0.000;0.000;2023-09-19T10:18:32;100475.44;;;23.18;
62976;BME280;49071;0.000;0.000;2023-09-19T10:21:36;100471.81;;;23.19;
62976;BME280;49071;0.000;0.000;2023-09-19T10:24:39;100463.75;;;23.20;
62976;BME280;49071;0.000;0.000;2023-09-19T10:27:41;100475.97;;;23.21;
62976;BME280;49071;0.000;0.000;2023-09-19T10:30:44;100479.25;;;23.23;
62976;BME280;49071;0.000;0.000;2023-09-19T10:33:45;100491.47;;;23.24;
62976;BME280;49071;0.000;0.000;2023-09-19T10:36:46;100487.88;;;23.25;
62976;BME280;49071;0.000;0.000;2023-09-19T10:39:49;100504.34;;;23.27;
62976;BME280;49071;0.000;0.000;2023-09-19T10:42:49;100503.22;;;23.30;
62976;BME280;49071;0.000;0.000;2023-09-19T10:45:50;100506.69;;;23.30;
62976;BME280;49071;0.000;0.000;2023-09-19T10:48:52;100501.41;;;23.30;
62976;BME280;49071;0.000;0.000;2023-09-19T10:51:55;100485.56;;;23.30;
62976;BME280;49071;0.000;0.000;2023-09-19T10:54:58;100495.31;;;23.30;
62976;BME280;49071;0.000;0.000;2023-09-19T10:58:01;100489.06;;;23.31;
62976;BME280;49071;0.000;0.000;2023-09-19T11:01:02;100491.69;;;23.31;
62976;BME280;49071;0.000;0.000;2023-09-19T11:07:27;100484.44;;;23.33;
62976;BME280;49071;0.000;0.000;2023-09-19T11:10:48;100490.72;;;23.32;
62976;BME280;49071;0.000;0.000;2023-09-19T11:14:11;100500.28;;;23.33;
62976;BME280;49071;0.000;0.000;2023-09-19T11:23:16;100480.16;;;23.32;
62976;BME280;49071;0.000;0.000;2023-09-19T11:26:39;100484.44;;;23.33;
62976;BME280;49071;0.000;0.000;2023-09-19T11:29:43;100484.44;;;23.33;
62976;BME280;49071;0.000;0.000;2023-09-19T11:39:03;100484.44;;;23.33;
62976;BME280;49071;0.000;0.000;2023-09-19T11:48:50;100492.34;;;23.33;
62976;BME280;49071;0.000;0.000;2023-09-19T11:51:51;100501.94;;;23.34;
62976;BME280;49071;0.000;0.000;2023-09-19T11:54:55;100484.44;;;23.33;
62976;BME280;49071;0.000;0.000;2023-09-19T11:57:57;100486.13;;;23.34;
62976;BME280;49071;0.000;0.000;2023-09-19T12:00:57;100493.19;;;23.33;
62976;BME280;49071;0.000;0.000;2023-09-19T12:04:00;100495.88;;;23.41;
62976;BME280;49071;0.000;0.000;2023-09-19T12:07:01;100484.31;;;23.42;
62976;BME280;49071;0.000;0.000;2023-09-19T12:10:03;100498.34;;;23.42;
62976;BME280;49071;0.000;0.000;2023-09-19T12:13:04;100504.47;;;23.43;
62976;BME280;49071;0.000;0.000;2023-09-19T12:19:18;100518.63;;;23.42;
62976;BME280;49071;0.000;0.000;2023-09-19T12:22:22;100501.84;;;23.43;
62976;BME280;49071;0.000;0.000;2023-09-19T12:25:22;100495.69;;;23.42;
62976;BME280;49071;0.000;0.000;2023-09-19T12:28:26;100495.69;;;23.42;
62976;BME280;49071;0.000;0.000;2023-09-19T12:31:27;100500.03;;;23.43;
62976;BME280;49071;0.000;0.000;2023-09-19T12:34:28;100493.91;;;23.43;
62976;BME280;49071;0.000;0.000;2023-09-19T12:37:28;100500.84;;;23.44;
62976;BME280;49071;0.000;0.000;2023-09-19T12:40:29;100498.22;;;23.44;
62976;BME280;49071;0.000;0.000;2023-09-19T12:43:33;100494.06;;;23.41;
62976;BME280;49071;0.000;0.000;2023-09-19T12:46:33;100500.97;;;23.42;
62976;BME280;49071;0.000;0.000;2023-09-19T12:49:33;100501.97;;;23.41;
62976;BME280;49071;0.000;0.000;2023-09-19T12:52:34;100506.25;;;23.42;
62976;BME280;49071;0.000;0.000;2023-09-19T12:55:36;100503.63;;;23.42;
62976;BME280;49071;0.000;0.000;2023-09-19T13:02:03;100506.44;;;23.41;
62976;BME280;49071;0.000;0.000;2023-09-19T13:05:03;100512.53;;;23.41;
62976;BME280;49071;0.000;0.000;2023-09-19T13:08:17;100502.97;;;23.40;
62976;BME280;49071;0.000;0.000;2023-09-19T13:11:18;100503.78;;;23.41;
62976;BME280;49071;0.000;0.000;2023-09-19T13:17:23;100504.63;;;23.41;
62976;BME280;49071;0.000;0.000;2023-09-19T13:20:24;100503.78;;;23.41;
62976;BME280;49071;0.000;0.000;2023-09-19T13:23:27;100516.81;;;23.42;
62976;BME280;49071;0.000;0.000;2023-09-19T13:26:27;100502.81;;;23.42;
62976;BME280;49071;0.000;0.000;2023-09-19T13:29:28;100513.22;;;23.43;
62976;BME280;49071;0.000;0.000;2023-09-19T13:32:28;100516.81;;;23.42;
62976;BME280;49071;0.000;0.000;2023-09-19T13:35:28;100511.53;;;23.42;
62976;BME280;49071;0.000;0.000;2023-09-19T13:38:29;100505.44;;;23.42;
62976;BME280;49071;0.000;0.000;2023-09-19T13:41:29;100510.59;;;23.43;
62976;BME280;49071;0.000;0.000;2023-09-19T13:44:32;100505.31;;;23.43;
62976;BME280;49071;0.000;0.000;2023-09-19T13:47:32;100498.22;;;23.44;
62976;BME280;49071;0.000;0.000;2023-09-19T13:50:34;100503.47;;;23.44;
62976;BME280;49071;0.000;0.000;2023-09-19T13:53:34;100507.94;;;23.43;
62976;BME280;49071;0.000;0.000;2023-09-19T13:56:34;100510.59;;;23.43;
62976;BME280;49071;0.000;0.000;2023-09-19T13:59:34;100500.97;;;23.42;
62976;BME280;49071;0.000;0.000;2023-09-19T14:02:35;100505.44;;;23.42;
62976;BME280;49071;0.000;0.000;2023-09-19T14:05:35;100502.66;;;23.43;
62976;BME280;49071;0.000;0.000;2023-09-19T14:08:35;100501.84;;;23.43;
62976;BME280;49071;0.000;0.000;2023-09-19T14:11:35;100500.97;;;23.42;
62976;BME280;49071;0.000;0.000;2023-09-19T14:14:35;100500.97;;;23.42;
62976;BME280;49071;0.000;0.000;2023-09-19T14:17:37;100502.66;;;23.43;
62976;BME280;49071;0.000;0.000;2023-09-19T14:20:38;100502.66;;;23.43;
62976;BME280;49071;0.000;0.000;2023-09-19T14:23:40;100506.13;;;23.44;
62976;BME280;49071;0.000;0.000;2023-09-19T14:26:41;100497.38;;;23.43;
62976;BME280;49071;0.000;0.000;2023-09-19T14:29:41;100502.66;;;23.43;
62976;BME280;49071;0.000;0.000;2023-09-19T14:32:42;100509.59;;;23.44;
62976;BME280;49071;0.000;0.000;2023-09-19T14:35:42;100502.66;;;23.43;
62976;BME280;49071;0.000;0.000;2023-09-19T14:38:42;100507.94;;;23.43;
62976;BME280;49071;0.000;0.000;2023-09-19T14:41:42;100514.19;;;23.42;
62976;BME280;49071;0.000;0.000;2023-09-19T14:44:43;100509.59;;;23.44;
62976;BME280;49071;0.000;0.000;2023-09-19T14:47:45;100502.66;;;23.43;
62976;BME280;49071;0.000;0.000;2023-09-19T14:50:45;100498.22;;;23.44;
62976;BME280;49071;0.000;0.000;2023-09-19T14:53:48;100504.31;;;23.44;
62976;BME280;49071;0.000;0.000;2023-09-19T14:56:49;100505.13;;;23.45;
62976;BME280;49071;0.000;0.000;2023-09-19T14:59:53;100498.22;;;23.44;
62976;BME280;49071;0.000;0.000;2023-09-19T15:02:54;100503.47;;;23.44;
62976;BME280;49071;0.000;0.000;2023-09-19T15:05:59;100487.34;;;23.47;
62976;BME280;49071;0.000;0.000;2023-09-19T15:09:00;100487.19;;;23.48;
62976;BME280;49071;0.000;0.000;2023-09-19T15:12:02;100494.28;;;23.48;
62976;BME280;49071;0.000;0.000;2023-09-19T15:15:02;100493.44;;;23.47;
62976;BME280;49071;0.000;0.000;2023-09-19T15:18:03;100494.44;;;23.46;
62976;BME280;49071;0.000;0.000;2023-09-19T15:21:04;100489.16;;;23.46;
62976;BME280;49071;0.000;0.000;2023-09-19T15:24:05;100491.78;;;23.46;
62976;BME280;49071;0.000;0.000;2023-09-19T15:27:05;100486.50;;;23.46;
62976;BME280;49071;0.000;0.000;2023-09-19T15:30:06;100491.78;;;23.46;
62976;BME280;49071;0.000;0.000;2023-09-19T15:33:06;100497.06;;;23.46;
62976;BME280;49071;0.000;0.000;2023-09-19T15:36:10;100497.06;;;23.46;
62976;BME280;49071;0.000;0.000;2023-09-19T15:39:10;100491.78;;;23.46;
62976;BME280;49071;0.000;0.000;2023-09-19T15:42:11;100495.25;;;23.47;
62976;BME280;49071;0.000;0.000;2023-09-19T15:45:11;100488.31;;;23.46;
62976;BME280;49071;0.000;0.000;2023-09-19T15:48:11;100489.16;;;23.46;
62976;BME280;49071;0.000;0.000;2023-09-19T15:51:11;100483.88;;;23.46;
62976;BME280;49071;0.000;0.000;2023-09-19T15:54:12;100497.06;;;23.46;
62976;BME280;49071;0.000;0.000;2023-09-19T15:57:16;100486.50;;;23.46;
62976;BME280;49071;0.000;0.000;2023-09-19T16:00:16;100493.44;;;23.47;
62976;BME280;49071;0.000;0.000;2023-09-19T16:03:17;100497.06;;;23.46;
62976;BME280;49071;0.000;0.000;2023-09-19T16:06:18;100500.53;;;23.47;
62976;BME280;49071;0.000;0.000;2023-09-19T16:09:18;100494.44;;;23.46;
62976;BME280;49071;0.000;0.000;2023-09-19T16:12:19;100497.06;;;23.46;
62976;BME280;49071;0.000;0.000;2023-09-19T16:15:19;100501.53;;;23.46;
62976;BME280;49071;0.000;0.000;2023-09-19T16:18:19;100506.81;;;23.46;
62976;BME280;49071;0.000;0.000;2023-09-19T16:21:19;100508.59;;;23.45;
62976;BME280;49071;0.000;0.000;2023-09-19T16:24:19;100507.63;;;23.46;
62976;BME280;49071;0.000;0.000;2023-09-19T16:27:20;100505.94;;;23.45;
62976;BME280;49071;0.000;0.000;2023-09-19T16:30:21;100501.53;;;23.46;
62976;BME280;49071;0.000;0.000;2023-09-19T16:33:21;100495.97;;;23.49;
62976;BME280;49071;0.000;0.000;2023-09-19T16:36:22;100508.16;;;23.50;
62976;BME280;49071;0.000;0.000;2023-09-19T16:39:23;100500.94;;;23.52;
62976;BME280;49071;0.000;0.000;2023-09-19T16:42:23;100501.44;;;23.55;
62976;BME280;49071;0.000;0.000;2023-09-19T16:45:24;100498.31;;;23.60;
62976;BME280;49071;0.000;0.000;2023-09-19T16:48:25;100500.81;;;23.61;
62976;BME280;49071;0.000;0.000;2023-09-19T16:51:25;100501.78;;;23.60;
62976;BME280;49071;0.000;0.000;2023-09-19T16:54:26;100499.13;;;23.60;
62976;BME280;49071;0.000;0.000;2023-09-19T16:57:26;100506.09;;;23.61;
62976;BME280;49071;0.000;0.000;2023-09-19T17:00:26;100505.09;;;23.62;
62976;BME280;49071;0.000;0.000;2023-09-19T17:03:26;100500.81;;;23.61;
62976;BME280;49071;0.000;0.000;2023-09-19T17:06:26;100504.09;;;23.63;
62976;BME280;49071;0.000;0.000;2023-09-19T17:09:27;100510.38;;;23.62;
62976;BME280;49071;0.000;0.000;2023-09-19T17:12:27;100512.19;;;23.62;
62976;BME280;49071;0.000;0.000;2023-09-19T17:15:27;100514.66;;;23.63;
62976;BME280;49071;0.000;0.000;2023-09-19T17:18:27;100524.41;;;23.63;
62976;BME280;49071;0.000;0.000;2023-09-19T17:21:28;100521.63;;;23.64;
62976;BME280;49071;0.000;0.000;2023-09-19T17:24:28;100519.94;;;23.63;
62976;BME280;49071;0.000;0.000;2023-09-19T17:27:29;100515.66;;;23.62;
62976;BME280;49071;0.000;0.000;2023-09-19T17:30:30;100514.66;;;23.63;
62976;BME280;49071;0.000;0.000;2023-09-19T17:33:32;100518.00;;;23.65;
62976;BME280;49071;0.000;0.000;2023-09-19T17:36:32;100516.34;;;23.64;
62976;BME280;49071;0.000;0.000;2023-09-19T17:39:32;100527.72;;;23.65;
62976;BME280;49071;0.000;0.000;2023-09-19T17:42:32;100529.38;;;23.66;
62976;BME280;49071;0.000;0.000;2023-09-19T17:45:33;100522.13;;;23.68;
62976;BME280;49071;0.000;0.000;2023-09-19T17:48:33;100523.78;;;23.69;
62976;BME280;49071;0.000;0.000;2023-09-19T17:51:33;100534.34;;;23.69;
62976;BME280;49071;0.000;0.000;2023-09-19T17:54:33;100541.28;;;23.69;
62976;BME280;49071;0.000;0.000;2023-09-19T17:57:34;100542.44;;;23.67;
62976;BME280;49071;0.000;0.000;2023-09-19T18:00:34;100534.53;;;23.67;
62976;BME280;49071;0.000;0.000;2023-09-19T18:03:37;100539.94;;;23.66;
62976;BME280;49071;0.000;0.000;2023-09-19T18:06:37;100543.41;;;23.66;
62976;BME280;49071;0.000;0.000;2023-09-19T18:09:38;100543.41;;;23.66;
62976;BME280;49071;0.000;0.000;2023-09-19T18:12:38;100556.63;;;23.66;
62976;BME280;49071;0.000;0.000;2023-09-19T18:15:38;100552.16;;;23.67;
62976;BME280;49071;0.000;0.000;2023-09-19T18:18:39;100549.38;;;23.68;
62976;BME280;49071;0.000;0.000;2023-09-19T18:21:39;100550.19;;;23.69;
62976;BME280;49071;0.000;0.000;2023-09-19T18:24:41;100554.66;;;23.68;
62976;BME280;49071;0.000;0.000;2023-09-19T18:27:42;100562.56;;;23.68;
62976;BME280;49071;0.000;0.000;2023-09-19T18:30:42;100560.94;;;23.67;
62976;BME280;49071;0.000;0.000;2023-09-19T18:33:42;100570.50;;;23.68;
62976;BME280;49071;0.000;0.000;2023-09-19T18:36:42;100565.22;;;23.68;
62976;BME280;49071;0.000;0.000;2023-09-19T18:39:43;100572.16;;;23.69;
62976;BME280;49071;0.000;0.000;2023-09-19T18:42:43;100568.50;;;23.70;
62976;BME280;49071;0.000;0.000;2023-09-19T18:45:43;100566.72;;;23.70;
62976;BME280;49071;0.000;0.000;2023-09-19T18:48:44;100566.56;;;23.72;
62976;BME280;49071;0.000;0.000;2023-09-19T18:51:44;100566.56;;;23.72;
62976;BME280;49071;0.000;0.000;2023-09-19T18:54:45;100569.19;;;23.72;
62976;BME280;49071;0.000;0.000;2023-09-19T18:57:45;100574.66;;;23.70;
62976;BME280;49071;0.000;0.000;2023-09-19T19:00:45;100575.47;;;23.71;
62976;BME280;49071;0.000;0.000;2023-09-19T19:03:46;100580.75;;;23.71;
62976;BME280;49071;0.000;0.000;2023-09-19T19:06:46;100586.03;;;23.71;
62976;BME280;49071;0.000;0.000;2023-09-19T19:09:47;100582.91;;;23.75;
62976;BME280;49071;0.000;0.000;2023-09-19T19:12:47;100583.91;;;23.74;
62976;BME280;49071;0.000;0.000;2023-09-19T19:15:47;100591.31;;;23.71;
62976;BME280;49071;0.000;0.000;2023-09-19T19:18:47;100583.03;;;23.66;
62976;BME280;49071;0.000;0.000;2023-09-19T19:21:48;100595.91;;;23.61;
62976;BME280;49071;0.000;0.000;2023-09-19T19:24:49;100588.94;;;23.60;
62976;BME280;49071;0.000;0.000;2023-09-19T19:27:49;100592.25;;;23.62;
62976;BME280;49071;0.000;0.000;2023-09-19T19:30:50;100590.63;;;23.61;
62976;BME280;49071;0.000;0.000;2023-09-19T19:33:51;100593.19;;;23.53;
62976;BME280;49071;0.000;0.000;2023-09-19T19:36:54;100592.06;;;23.56;
62976;BME280;49071;0.000;0.000;2023-09-19T19:39:54;100593.00;;;23.55;
62976;BME280;49071;0.000;0.000;2023-09-19T19:42:54;100593.50;;;23.50;
62976;BME280;49071;0.000;0.000;2023-09-19T19:45:56;100594.19;;;23.52;
62976;BME280;49071;0.000;0.000;2023-09-19T19:48:56;100592.88;;;23.56;
62976;BME280;49071;0.000;0.000;2023-09-19T19:51:58;100596.41;;;23.65;
